sensor_id;sensor_type;location;lat;lon;timestamp;pressure;altitude;pressure_sealevel;temperature;humidity
29239;BME280;16267;48.194;11.546;2022-08-19T00:01:25;95500.19;;;21.20;89.58
29239;BME280;16267;48.194;11.546;2022-08-19T00:04:36;95505.66;;;21.20;89.54
29239;BME280;16267;48.194;11.546;2022-08-19T00:07:06;95517.34;;;21.20;89.86
29239;BME280;16267;48.194;11.546;2022-08-19T00:09:33;95518.81;;;21.21;90.36
29239;BME280;16267;48.194;11.546;2022-08-19T00:11:59;95515.34;;;21.21;90.91
29239;BME280;16267;48.194;11.546;2022-08-19T00:14:26;95506.16;;;21.18;91.22
29239;BME280;16267;48.194;11.546;2022-08-19T00:16:53;95510.34;;;21.19;90.94
29239;BME280;16267;48.194;11.546;2022-08-19T00:19:20;95518.53;;;21.19;90.81
29239;BME280;16267;48.194;11.546;2022-08-19T00:21:46;95513.84;;;21.20;90.60
29239;BME280;16267;48.194;11.546;2022-08-19T00:24:14;95497.97;;;21.18;90.46
29239;BME280;16267;48.194;11.546;2022-08-19T00:26:42;95479.59;;;21.19;90.26
29239;BME280;16267;48.194;11.546;2022-08-19T00:29:11;95480.84;;;21.17;90.57
29239;BME280;16267;48.194;11.546;2022-08-19T00:31:38;95477.34;;;21.17;90.74
29239;BME280;16267;48.194;11.546;2022-08-19T00:34:04;95469.16;;;21.17;90.35
29239;BME280;16267;48.194;11.546;2022-08-19T00:36:30;95460.22;;;21.16;90.37
29239;BME280;16267;48.194;11.546;2022-08-19T00:39:07;95463.69;;;21.17;90.02
29239;BME280;16267;48.194;11.546;2022-08-19T00:41:34;95464.94;;;21.16;90.80
29239;BME280;16267;48.194;11.546;2022-08-19T00:44:06;95466.91;;;21.15;90.72
29239;BME280;16267;48.194;11.546;2022-08-19T00:46:34;95466.19;;;21.15;90.24
29239;BME280;16267;48.194;11.546;2022-08-19T00:52:15;95452.53;;;21.15;89.57
29239;BME280;16267;48.194;11.546;2022-08-19T00:54:43;95451.03;;;21.14;90.47
29239;BME280;16267;48.194;11.546;2022-08-19T00:57:14;95437.13;;;21.12;90.91
29239;BME280;16267;48.194;11.546;2022-08-19T00:59:43;95437.13;;;21.12;90.52
29239;BME280;16267;48.194;11.546;2022-08-19T01:02:11;95439.09;;;21.11;90.43
29239;BME280;16267;48.194;11.546;2022-08-19T01:04:37;95446.47;;;21.05;90.53
29239;BME280;16267;48.194;11.546;2022-08-19T01:07:03;95448.94;;;21.03;92.32
29239;BME280;16267;48.194;11.546;2022-08-19T01:09:30;95450.91;;;21.03;91.58
29239;BME280;16267;48.194;11.546;2022-08-19T01:11:56;95449.91;;;21.00;91.76
29239;BME280;16267;48.194;11.546;2022-08-19T01:14:23;95440.22;;;20.99;91.80
29239;BME280;16267;48.194;11.546;2022-08-19T01:16:50;95434.03;;;20.99;91.75
29239;BME280;16267;48.194;11.546;2022-08-19T01:19:28;95429.78;;;20.98;91.29
29239;BME280;16267;48.194;11.546;2022-08-19T01:24:51;95442.91;;;20.93;92.26
29239;BME280;16267;48.194;11.546;2022-08-19T01:27:18;95438.69;;;20.92;92.51
29239;BME280;16267;48.194;11.546;2022-08-19T01:29:45;95427.00;;;20.92;91.88
29239;BME280;16267;48.194;11.546;2022-08-19T01:32:16;95436.44;;;20.91;92.22
29239;BME280;16267;48.194;11.546;2022-08-19T01:34:43;95443.59;;;20.88;92.75
29239;BME280;16267;48.194;11.546;2022-08-19T01:37:13;95450.00;;;20.85;93.57
29239;BME280;16267;48.194;11.546;2022-08-19T01:39:41;95465.34;;;20.83;93.43
29239;BME280;16267;48.194;11.546;2022-08-19T01:42:09;95465.84;;;20.81;94.32
29239;BME280;16267;48.194;11.546;2022-08-19T01:44:39;95466.31;;;20.80;93.65
29239;BME280;16267;48.194;11.546;2022-08-19T01:47:07;95471.03;;;20.79;93.44
29239;BME280;16267;48.194;11.546;2022-08-19T01:49:33;95475.25;;;20.80;93.20
29239;BME280;16267;48.194;11.546;2022-08-19T01:52:00;95473.75;;;20.79;93.26
29239;BME280;16267;48.194;11.546;2022-08-19T01:54:26;95479.22;;;20.79;92.69
29239;BME280;16267;48.194;11.546;2022-08-19T01:57:02;95477.22;;;20.80;93.09
29239;BME280;16267;48.194;11.546;2022-08-19T01:59:30;95487.41;;;20.79;93.51
29239;BME280;16267;48.194;11.546;2022-08-19T02:01:56;95485.41;;;20.80;93.81
29239;BME280;16267;48.194;11.546;2022-08-19T02:04:22;95487.41;;;20.79;94.09
29239;BME280;16267;48.194;11.546;2022-08-19T02:06:48;95475.25;;;20.80;93.38
29239;BME280;16267;48.194;11.546;2022-08-19T02:09:15;95473.25;;;20.81;93.13
29239;BME280;16267;48.194;11.546;2022-08-19T02:11:42;95474.03;;;20.81;92.69
29239;BME280;16267;48.194;11.546;2022-08-19T02:14:08;95482.22;;;20.81;93.08
29239;BME280;16267;48.194;11.546;2022-08-19T02:16:35;95493.88;;;20.82;93.16
29239;BME280;16267;48.194;11.546;2022-08-19T02:19:01;95496.59;;;20.82;93.63
29239;BME280;16267;48.194;11.546;2022-08-19T02:21:28;95502.78;;;20.82;93.72
29239;BME280;16267;48.194;11.546;2022-08-19T02:23:55;95498.59;;;20.81;93.73
29239;BME280;16267;48.194;11.546;2022-08-19T02:26:21;95500.06;;;20.82;92.97
29239;BME280;16267;48.194;11.546;2022-08-19T02:28:47;95508.25;;;20.82;92.90
29239;BME280;16267;48.194;11.546;2022-08-19T02:31:17;95504.78;;;20.82;93.39
29239;BME280;16267;48.194;11.546;2022-08-19T02:33:45;95508.72;;;20.81;94.26
29239;BME280;16267;48.194;11.546;2022-08-19T02:36:13;95512.63;;;20.74;94.51
29239;BME280;16267;48.194;11.546;2022-08-19T02:38:40;95505.69;;;20.73;95.34
29239;BME280;16267;48.194;11.546;2022-08-19T02:41:24;95504.16;;;20.72;94.47
29239;BME280;16267;48.194;11.546;2022-08-19T02:43:51;95493.25;;;20.72;93.93
29239;BME280;16267;48.194;11.546;2022-08-19T02:46:20;95485.06;;;20.72;94.05
29239;BME280;16267;48.194;11.546;2022-08-19T02:48:58;95478.13;;;20.71;94.41
29239;BME280;16267;48.194;11.546;2022-08-19T02:51:31;95470.69;;;20.71;94.19
29239;BME280;16267;48.194;11.546;2022-08-19T02:53:58;95446.16;;;20.71;93.54
29239;BME280;16267;48.194;11.546;2022-08-19T02:56:26;95439.97;;;20.71;93.29
29239;BME280;16267;48.194;11.546;2022-08-19T02:58:54;95439.22;;;20.70;93.91
29239;BME280;16267;48.194;11.546;2022-08-19T03:01:31;95438.19;;;20.68;94.75
29239;BME280;16267;48.194;11.546;2022-08-19T03:04:01;95435.19;;;20.66;95.25
29239;BME280;16267;48.194;11.546;2022-08-19T03:06:28;95430.19;;;20.64;95.11
29239;BME280;16267;48.194;11.546;2022-08-19T03:08:54;95436.44;;;20.65;94.25
29239;BME280;16267;48.194;11.546;2022-08-19T03:11:30;95441.88;;;20.65;94.12
29239;BME280;16267;48.194;11.546;2022-08-19T03:13:57;95452.78;;;20.65;94.78
29239;BME280;16267;48.194;11.546;2022-08-19T03:16:26;95462.91;;;20.64;94.27
29239;BME280;16267;48.194;11.546;2022-08-19T03:18:55;95471.09;;;20.64;94.34
29239;BME280;16267;48.194;11.546;2022-08-19T03:21:28;95460.69;;;20.63;94.27
29239;BME280;16267;48.194;11.546;2022-08-19T03:23:56;95454.75;;;20.64;93.65
29239;BME280;16267;48.194;11.546;2022-08-19T03:26:22;95460.19;;;20.64;93.62
29239;BME280;16267;48.194;11.546;2022-08-19T03:28:48;95479.28;;;20.64;93.90
29239;BME280;16267;48.194;11.546;2022-08-19T03:31:19;95488.69;;;20.63;94.66
29239;BME280;16267;48.194;11.546;2022-08-19T03:34:02;95485.22;;;20.63;94.85
29239;BME280;16267;48.194;11.546;2022-08-19T03:36:31;95481.00;;;20.62;94.71
29239;BME280;16267;48.194;11.546;2022-08-19T03:39:00;95480.25;;;20.61;94.96
29239;BME280;16267;48.194;11.546;2022-08-19T03:41:30;95477.50;;;20.61;93.97
29239;BME280;16267;48.194;11.546;2022-08-19T03:43:57;95478.47;;;20.58;94.98
29239;BME280;16267;48.194;11.546;2022-08-19T03:46:27;95475.00;;;20.58;95.93
29239;BME280;16267;48.194;11.546;2022-08-19T03:48:56;95476.25;;;20.57;95.57
29239;BME280;16267;48.194;11.546;2022-08-19T03:51:38;95465.06;;;20.55;95.45
29239;BME280;16267;48.194;11.546;2022-08-19T03:54:08;95474.72;;;20.56;94.92
29239;BME280;16267;48.194;11.546;2022-08-19T03:56:36;95464.31;;;20.54;95.61
29239;BME280;16267;48.194;11.546;2022-08-19T03:59:04;95467.19;;;20.50;96.56
29239;BME280;16267;48.194;11.546;2022-08-19T04:01:31;95466.94;;;20.48;96.93
29239;BME280;16267;48.194;11.546;2022-08-19T04:03:58;95471.66;;;20.48;97.98
29239;BME280;16267;48.194;11.546;2022-08-19T04:06:30;95465.44;;;20.47;97.64
29239;BME280;16267;48.194;11.546;2022-08-19T04:08:59;95460.75;;;20.48;96.36
29239;BME280;16267;48.194;11.546;2022-08-19T04:11:51;95465.72;;;20.49;96.19
29239;BME280;16267;48.194;11.546;2022-08-19T04:14:19;95465.25;;;20.51;95.34
29239;BME280;16267;48.194;11.546;2022-08-19T04:16:47;95458.56;;;20.52;95.31
29239;BME280;16267;48.194;11.546;2022-08-19T04:19:15;95457.34;;;20.53;94.57
29239;BME280;16267;48.194;11.546;2022-08-19T04:21:53;95462.34;;;20.55;95.31
29239;BME280;16267;48.194;11.546;2022-08-19T04:24:20;95465.81;;;20.55;94.91
29239;BME280;16267;48.194;11.546;2022-08-19T04:26:47;95464.09;;;20.58;94.82
29239;BME280;16267;48.194;11.546;2022-08-19T04:29:21;95461.84;;;20.56;95.61
29239;BME280;16267;48.194;11.546;2022-08-19T04:31:48;95462.34;;;20.55;96.34
29239;BME280;16267;48.194;11.546;2022-08-19T04:34:18;95465.06;;;20.55;96.66
29239;BME280;16267;48.194;11.546;2022-08-19T04:36:47;95472.00;;;20.56;95.86
29239;BME280;16267;48.194;11.546;2022-08-19T04:39:17;95481.69;;;20.57;97.32
29239;BME280;16267;48.194;11.546;2022-08-19T04:41:44;95491.09;;;20.56;96.88
29239;BME280;16267;48.194;11.546;2022-08-19T04:44:30;95491.81;;;20.56;96.90
29239;BME280;16267;48.194;11.546;2022-08-19T04:46:56;95498.06;;;20.57;96.79
29239;BME280;16267;48.194;11.546;2022-08-19T04:49:23;95491.09;;;20.56;97.27
29239;BME280;16267;48.194;11.546;2022-08-19T04:51:52;95496.06;;;20.57;97.86
29239;BME280;16267;48.194;11.546;2022-08-19T04:54:20;95498.78;;;20.57;97.51
29239;BME280;16267;48.194;11.546;2022-08-19T04:56:49;95506.97;;;20.57;96.63
29239;BME280;16267;48.194;11.546;2022-08-19T04:59:16;95509.22;;;20.59;96.69
29239;BME280;16267;48.194;11.546;2022-08-19T05:01:43;95513.16;;;20.58;96.02
29239;BME280;16267;48.194;11.546;2022-08-19T05:04:09;95511.94;;;20.59;96.08
29239;BME280;16267;48.194;11.546;2022-08-19T05:06:35;95515.44;;;20.59;96.26
29239;BME280;16267;48.194;11.546;2022-08-19T05:09:04;95521.63;;;20.60;96.06
29239;BME280;16267;48.194;11.546;2022-08-19T05:11:34;95521.63;;;20.60;96.03
29239;BME280;16267;48.194;11.546;2022-08-19T05:14:01;95531.28;;;20.61;95.63
29239;BME280;16267;48.194;11.546;2022-08-19T05:16:27;95539.47;;;20.61;96.05
29239;BME280;16267;48.194;11.546;2022-08-19T05:18:54;95530.56;;;20.60;96.66
29239;BME280;16267;48.194;11.546;2022-08-19T05:21:41;95520.41;;;20.61;96.04
29239;BME280;16267;48.194;11.546;2022-08-19T05:24:26;95526.59;;;20.61;95.59
29239;BME280;16267;48.194;11.546;2022-08-19T05:26:54;95522.66;;;20.62;95.14
29239;BME280;16267;48.194;11.546;2022-08-19T05:29:25;95524.63;;;20.62;95.03
29239;BME280;16267;48.194;11.546;2022-08-19T05:31:53;95519.44;;;20.64;94.76
29239;BME280;16267;48.194;11.546;2022-08-19T05:34:21;95513.97;;;20.64;94.69
29239;BME280;16267;48.194;11.546;2022-08-19T05:36:49;95508.81;;;20.66;95.54
29239;BME280;16267;48.194;11.546;2022-08-19T05:39:20;95506.81;;;20.66;96.06
29239;BME280;16267;48.194;11.546;2022-08-19T05:41:49;95511.53;;;20.66;95.44
29239;BME280;16267;48.194;11.546;2022-08-19T05:44:17;95507.56;;;20.67;95.16
29239;BME280;16267;48.194;11.546;2022-08-19T05:46:44;95503.63;;;20.68;95.07
29239;BME280;16267;48.194;11.546;2022-08-19T05:49:14;95507.84;;;20.69;95.54
29239;BME280;16267;48.194;11.546;2022-08-19T05:51:42;95509.81;;;20.68;96.29
29239;BME280;16267;48.194;11.546;2022-08-19T05:54:08;95510.56;;;20.69;96.05
29239;BME280;16267;48.194;11.546;2022-08-19T05:56:34;95509.81;;;20.68;95.54
29239;BME280;16267;48.194;11.546;2022-08-19T05:59:05;95511.31;;;20.69;95.56
29239;BME280;16267;48.194;11.546;2022-08-19T06:01:35;95510.56;;;20.69;95.50
29239;BME280;16267;48.194;11.546;2022-08-19T06:04:02;95513.31;;;20.69;96.51
29239;BME280;16267;48.194;11.546;2022-08-19T06:06:28;95510.56;;;20.69;95.64
29239;BME280;16267;48.194;11.546;2022-08-19T06:08:54;95514.03;;;20.69;96.49
29239;BME280;16267;48.194;11.546;2022-08-19T06:11:32;95508.59;;;20.69;97.63
29239;BME280;16267;48.194;11.546;2022-08-19T06:14:14;95504.38;;;20.68;97.78
29239;BME280;16267;48.194;11.546;2022-08-19T06:16:41;95514.03;;;20.69;97.54
29239;BME280;16267;48.194;11.546;2022-08-19T06:19:11;95520.25;;;20.70;98.76
29239;BME280;16267;48.194;11.546;2022-08-19T06:21:40;95526.94;;;20.69;98.20
29239;BME280;16267;48.194;11.546;2022-08-19T06:24:08;95524.94;;;20.69;96.89
29239;BME280;16267;48.194;11.546;2022-08-19T06:26:37;95530.41;;;20.69;97.64
29239;BME280;16267;48.194;11.546;2022-08-19T06:29:06;95524.22;;;20.69;97.88
29239;BME280;16267;48.194;11.546;2022-08-19T06:31:34;95525.44;;;20.68;98.17
29239;BME280;16267;48.194;11.546;2022-08-19T06:34:04;95520.75;;;20.68;97.93
29239;BME280;16267;48.194;11.546;2022-08-19T06:36:35;95520.00;;;20.68;98.60
29239;BME280;16267;48.194;11.546;2022-08-19T06:39:05;95525.44;;;20.68;98.49
29239;BME280;16267;48.194;11.546;2022-08-19T06:41:36;95523.47;;;20.68;97.70
29239;BME280;16267;48.194;11.546;2022-08-19T06:44:03;95523.47;;;20.68;96.46
29239;BME280;16267;48.194;11.546;2022-08-19T06:46:28;95524.22;;;20.69;97.67
29239;BME280;16267;48.194;11.546;2022-08-19T06:48:57;95522.22;;;20.69;98.12
29239;BME280;16267;48.194;11.546;2022-08-19T06:51:23;95523.47;;;20.68;97.66
29239;BME280;16267;48.194;11.546;2022-08-19T06:53:52;95526.94;;;20.69;97.25
29239;BME280;16267;48.194;11.546;2022-08-19T06:56:30;95527.69;;;20.69;96.58
29239;BME280;16267;48.194;11.546;2022-08-19T06:59:12;95518.28;;;20.70;96.37
29239;BME280;16267;48.194;11.546;2022-08-19T07:01:44;95517.78;;;20.72;96.18
29239;BME280;16267;48.194;11.546;2022-08-19T07:04:14;95518.53;;;20.72;95.45
29239;BME280;16267;48.194;11.546;2022-08-19T07:06:42;95513.38;;;20.75;97.08
29239;BME280;16267;48.194;11.546;2022-08-19T07:09:13;95512.13;;;20.76;96.60
29239;BME280;16267;48.194;11.546;2022-08-19T07:11:48;95512.91;;;20.76;96.82
29239;BME280;16267;48.194;11.546;2022-08-19T07:14:18;95518.59;;;20.78;96.62
29239;BME280;16267;48.194;11.546;2022-08-19T07:16:46;95510.41;;;20.78;96.21
29239;BME280;16267;48.194;11.546;2022-08-19T07:19:13;95513.44;;;20.80;96.77
29239;BME280;16267;48.194;11.546;2022-08-19T07:21:40;95508.25;;;20.82;96.23
29239;BME280;16267;48.194;11.546;2022-08-19T07:24:06;95505.03;;;20.84;96.55
29239;BME280;16267;48.194;11.546;2022-08-19T07:26:38;95495.13;;;20.86;96.03
29239;BME280;16267;48.194;11.546;2022-08-19T07:29:06;95494.69;;;20.88;96.24
29239;BME280;16267;48.194;11.546;2022-08-19T07:31:32;95484.78;;;20.90;95.86
29239;BME280;16267;48.194;11.546;2022-08-19T07:34:07;95479.09;;;20.94;95.70
29239;BME280;16267;48.194;11.546;2022-08-19T07:36:37;95477.69;;;20.99;95.11
29239;BME280;16267;48.194;11.546;2022-08-19T07:39:19;95469.28;;;21.02;94.76
29239;BME280;16267;48.194;11.546;2022-08-19T07:41:46;95478.00;;;21.06;94.54
29239;BME280;16267;48.194;11.546;2022-08-19T07:44:13;95471.59;;;21.09;94.37
29239;BME280;16267;48.194;11.546;2022-08-19T07:46:46;95478.81;;;21.12;94.80
29239;BME280;16267;48.194;11.546;2022-08-19T07:49:14;95477.84;;;21.15;94.57
29239;BME280;16267;48.194;11.546;2022-08-19T07:51:54;95479.31;;;21.16;95.87
29239;BME280;16267;48.194;11.546;2022-08-19T07:54:23;95485.53;;;21.17;95.56
29239;BME280;16267;48.194;11.546;2022-08-19T07:56:50;95484.78;;;21.16;95.14
29239;BME280;16267;48.194;11.546;2022-08-19T07:59:17;95495.97;;;21.19;95.18
29239;BME280;16267;48.194;11.546;2022-08-19T08:01:44;95490.50;;;21.19;95.37
29239;BME280;16267;48.194;11.546;2022-08-19T08:04:11;95503.41;;;21.18;95.44
29239;BME280;16267;48.194;11.546;2022-08-19T08:06:55;95504.63;;;21.17;96.11
29239;BME280;16267;48.194;11.546;2022-08-19T08:09:42;95513.59;;;21.17;95.55
29239;BME280;16267;48.194;11.546;2022-08-19T08:12:30;95500.41;;;21.16;94.66
29239;BME280;16267;48.194;11.546;2022-08-19T08:15:01;95496.94;;;21.15;95.13
29239;BME280;16267;48.194;11.546;2022-08-19T08:17:30;95500.91;;;21.14;96.68
29239;BME280;16267;48.194;11.546;2022-08-19T08:19:57;95500.13;;;21.14;96.05
29239;BME280;16267;48.194;11.546;2022-08-19T08:22:23;95507.56;;;21.13;96.43
29239;BME280;16267;48.194;11.546;2022-08-19T08:25:16;95513.53;;;21.12;97.44
29239;BME280;16267;48.194;11.546;2022-08-19T08:27:44;95511.28;;;21.10;96.88
29239;BME280;16267;48.194;11.546;2022-08-19T08:30:23;95515.97;;;21.10;97.90
29239;BME280;16267;48.194;11.546;2022-08-19T08:32:50;95516.44;;;21.08;96.44
29239;BME280;16267;48.194;11.546;2022-08-19T08:35:20;95514.47;;;21.09;96.57
29239;BME280;16267;48.194;11.546;2022-08-19T08:37:49;95516.44;;;21.08;96.06
29239;BME280;16267;48.194;11.546;2022-08-19T08:40:32;95519.19;;;21.08;95.49
29239;BME280;16267;48.194;11.546;2022-08-19T08:45:56;95522.94;;;21.11;96.63
29239;BME280;16267;48.194;11.546;2022-08-19T08:48:36;95523.66;;;21.11;97.26
29239;BME280;16267;48.194;11.546;2022-08-19T08:51:11;95530.16;;;21.14;96.27
29239;BME280;16267;48.194;11.546;2022-08-19T08:53:40;95533.91;;;21.16;95.94
29239;BME280;16267;48.194;11.546;2022-08-19T08:56:09;95533.44;;;21.18;95.53
29239;BME280;16267;48.194;11.546;2022-08-19T08:59:04;95528.72;;;21.19;94.76
29239;BME280;16267;48.194;11.546;2022-08-19T09:01:33;95533.97;;;21.22;94.54
29239;BME280;16267;48.194;11.546;2022-08-19T09:03:59;95532.75;;;21.23;94.62
29239;BME280;16267;48.194;11.546;2022-08-19T09:09:42;95548.34;;;21.23;93.89
29239;BME280;16267;48.194;11.546;2022-08-19T09:12:31;95547.59;;;21.22;95.72
29239;BME280;16267;48.194;11.546;2022-08-19T09:15:08;95543.38;;;21.21;95.21
29239;BME280;16267;48.194;11.546;2022-08-19T09:17:36;95544.88;;;21.22;95.69
29239;BME280;16267;48.194;11.546;2022-08-19T09:22:38;95542.13;;;21.22;96.96
29239;BME280;16267;48.194;11.546;2022-08-19T09:25:06;95546.84;;;21.22;96.42
29239;BME280;16267;48.194;11.546;2022-08-19T09:27:33;95546.09;;;21.21;95.92
29239;BME280;16267;48.194;11.546;2022-08-19T09:29:59;95542.63;;;21.21;95.77
29239;BME280;16267;48.194;11.546;2022-08-19T09:32:25;95546.84;;;21.22;95.43
29239;BME280;16267;48.194;11.546;2022-08-19T09:34:51;95544.88;;;21.22;95.18
29239;BME280;16267;48.194;11.546;2022-08-19T09:37:20;95550.31;;;21.22;95.08
29239;BME280;16267;48.194;11.546;2022-08-19T09:39:47;95546.09;;;21.21;94.51
29239;BME280;16267;48.194;11.546;2022-08-19T09:42:13;95543.38;;;21.21;94.34
29239;BME280;16267;48.194;11.546;2022-08-19T09:44:41;95548.84;;;21.21;94.48
29239;BME280;16267;48.194;11.546;2022-08-19T09:47:09;95544.13;;;21.22;94.06
29239;BME280;16267;48.194;11.546;2022-08-19T09:49:36;95540.94;;;21.23;93.85
29239;BME280;16267;48.194;11.546;2022-08-19T09:52:03;95534.22;;;21.24;93.99
29239;BME280;16267;48.194;11.546;2022-08-19T09:54:29;95528.31;;;21.26;94.46
29239;BME280;16267;48.194;11.546;2022-08-19T09:56:57;95529.78;;;21.27;95.32
29239;BME280;16267;48.194;11.546;2022-08-19T09:59:23;95540.97;;;21.29;97.05
29239;BME280;16267;48.194;11.546;2022-08-19T10:01:50;95538.50;;;21.31;96.77
29239;BME280;16267;48.194;11.546;2022-08-19T10:04:17;95535.31;;;21.32;96.72
29239;BME280;16267;48.194;11.546;2022-08-19T10:06:42;95540.28;;;21.34;97.28
29239;BME280;16267;48.194;11.546;2022-08-19T10:09:10;95541.78;;;21.35;97.19
29239;BME280;16267;48.194;11.546;2022-08-19T10:11:39;95540.53;;;21.36;98.11
29239;BME280;16267;48.194;11.546;2022-08-19T10:14:06;95550.53;;;21.39;100.00
29239;BME280;16267;48.194;11.546;2022-08-19T10:16:33;95547.53;;;21.37;100.00
29239;BME280;16267;48.194;11.546;2022-08-19T10:19:01;95553.00;;;21.37;100.00
29239;BME280;16267;48.194;11.546;2022-08-19T10:21:30;95554.25;;;21.42;98.95
29239;BME280;16267;48.194;11.546;2022-08-19T10:24:00;95548.63;;;21.45;98.16
29239;BME280;16267;48.194;11.546;2022-08-19T10:26:36;95538.50;;;21.51;98.86
29239;BME280;16267;48.194;11.546;2022-08-19T10:29:03;95535.81;;;21.57;99.25
29239;BME280;16267;48.194;11.546;2022-08-19T10:31:33;95536.13;;;21.65;100.00
29239;BME280;16267;48.194;11.546;2022-08-19T10:34:00;95540.38;;;21.71;100.00
29239;BME280;16267;48.194;11.546;2022-08-19T10:36:35;95535.50;;;21.81;100.00
29239;BME280;16267;48.194;11.546;2022-08-19T10:39:07;95542.50;;;21.88;100.00
29239;BME280;16267;48.194;11.546;2022-08-19T10:41:37;95539.06;;;21.93;100.00
29239;BME280;16267;48.194;11.546;2022-08-19T10:44:11;95537.88;;;21.99;100.00
29239;BME280;16267;48.194;11.546;2022-08-19T10:46:41;95529.97;;;22.07;100.00
29239;BME280;16267;48.194;11.546;2022-08-19T10:49:12;95534.50;;;22.16;100.00
29239;BME280;16267;48.194;11.546;2022-08-19T10:51:41;95528.34;;;22.21;100.00
29239;BME280;16267;48.194;11.546;2022-08-19T10:54:26;95521.44;;;22.25;100.00
29239;BME280;16267;48.194;11.546;2022-08-19T10:57:13;95537.09;;;22.31;100.00
29239;BME280;16267;48.194;11.546;2022-08-19T10:59:39;95533.13;;;22.32;100.00
29239;BME280;16267;48.194;11.546;2022-08-19T11:02:08;95538.34;;;22.30;100.00
29239;BME280;16267;48.194;11.546;2022-08-19T11:04:40;95542.78;;;22.27;98.60
29239;BME280;16267;48.194;11.546;2022-08-19T11:07:06;95532.38;;;22.31;98.66
29239;BME280;16267;48.194;11.546;2022-08-19T11:09:41;95532.16;;;22.35;97.57
29239;BME280;16267;48.194;11.546;2022-08-19T11:12:08;95526.44;;;22.38;97.67
29239;BME280;16267;48.194;11.546;2022-08-19T11:14:35;95531.94;;;22.44;96.91
29239;BME280;16267;48.194;11.546;2022-08-19T11:17:04;95524.75;;;22.46;96.81
29239;BME280;16267;48.194;11.546;2022-08-19T11:19:31;95519.28;;;22.46;96.58
29239;BME280;16267;48.194;11.546;2022-08-19T11:21:57;95507.34;;;22.49;96.07
29239;BME280;16267;48.194;11.546;2022-08-19T11:24:25;95502.91;;;22.52;95.67
29239;BME280;16267;48.194;11.546;2022-08-19T11:26:54;95508.88;;;22.51;95.32
29239;BME280;16267;48.194;11.546;2022-08-19T11:29:25;95513.34;;;22.54;96.06
29239;BME280;16267;48.194;11.546;2022-08-19T11:31:53;95522.06;;;22.58;96.27
29239;BME280;16267;48.194;11.546;2022-08-19T11:34:26;95519.59;;;22.60;94.57
29239;BME280;16267;48.194;11.546;2022-08-19T11:36:55;95523.81;;;22.61;93.56
29239;BME280;16267;48.194;11.546;2022-08-19T11:39:26;95525.06;;;22.60;92.89
29239;BME280;16267;48.194;11.546;2022-08-19T11:41:52;95518.09;;;22.59;92.37
29239;BME280;16267;48.194;11.546;2022-08-19T11:44:18;95523.06;;;22.60;92.36
29239;BME280;16267;48.194;11.546;2022-08-19T11:46:45;95525.06;;;22.60;92.09
29239;BME280;16267;48.194;11.546;2022-08-19T11:49:16;95528.28;;;22.58;91.28
29239;BME280;16267;48.194;11.546;2022-08-19T11:51:44;95523.06;;;22.55;91.96
29239;BME280;16267;48.194;11.546;2022-08-19T11:54:12;95527.53;;;22.58;91.84
29239;BME280;16267;48.194;11.546;2022-08-19T11:56:40;95525.06;;;22.60;91.22
29239;BME280;16267;48.194;11.546;2022-08-19T11:59:06;95526.56;;;22.61;91.53
29239;BME280;16267;48.194;11.546;2022-08-19T12:01:33;95517.13;;;22.62;91.39
29239;BME280;16267;48.194;11.546;2022-08-19T12:03:59;95522.84;;;22.64;90.57
29239;BME280;16267;48.194;11.546;2022-08-19T12:06:31;95530.81;;;22.67;90.20
29239;BME280;16267;48.194;11.546;2022-08-19T12:09:06;95525.56;;;22.64;89.15
29239;BME280;16267;48.194;11.546;2022-08-19T12:11:33;95525.84;;;22.66;90.75
29239;BME280;16267;48.194;11.546;2022-08-19T12:13:59;95531.31;;;22.66;90.27
29239;BME280;16267;48.194;11.546;2022-08-19T12:16:28;95525.34;;;22.67;90.23
29239;BME280;16267;48.194;11.546;2022-08-19T12:18:55;95517.38;;;22.69;91.00
29239;BME280;16267;48.194;11.546;2022-08-19T12:21:25;95524.88;;;22.75;89.94
29239;BME280;16267;48.194;11.546;2022-08-19T12:23:53;95530.88;;;22.79;89.38
29239;BME280;16267;48.194;11.546;2022-08-19T12:26:20;95543.81;;;22.84;89.90
29239;BME280;16267;48.194;11.546;2022-08-19T12:28:48;95544.56;;;22.84;89.28
29239;BME280;16267;48.194;11.546;2022-08-19T12:31:16;95544.31;;;22.88;89.11
29239;BME280;16267;48.194;11.546;2022-08-19T12:33:43;95546.06;;;22.91;89.24
29239;BME280;16267;48.194;11.546;2022-08-19T12:36:14;95541.59;;;22.93;89.10
29239;BME280;16267;48.194;11.546;2022-08-19T12:38:42;95545.38;;;22.96;88.35
29239;BME280;16267;48.194;11.546;2022-08-19T12:41:12;95537.44;;;22.98;89.51
29239;BME280;16267;48.194;11.546;2022-08-19T12:43:38;95546.13;;;23.02;88.29
29239;BME280;16267;48.194;11.546;2022-08-19T12:46:08;95540.19;;;23.09;88.66
29239;BME280;16267;48.194;11.546;2022-08-19T12:48:37;95545.41;;;23.13;87.60
29239;BME280;16267;48.194;11.546;2022-08-19T12:51:16;95547.91;;;23.16;87.48
29239;BME280;16267;48.194;11.546;2022-08-19T12:53:46;95554.63;;;23.15;84.68
29239;BME280;16267;48.194;11.546;2022-08-19T12:56:14;95555.63;;;23.18;85.60
29239;BME280;16267;48.194;11.546;2022-08-19T12:58:41;95556.13;;;23.22;86.13
29239;BME280;16267;48.194;11.546;2022-08-19T13:01:14;95554.66;;;23.27;85.57
29239;BME280;16267;48.194;11.546;2022-08-19T13:03:42;95545.94;;;23.23;84.59
29239;BME280;16267;48.194;11.546;2022-08-19T13:06:09;95545.44;;;23.30;85.35
29239;BME280;16267;48.194;11.546;2022-08-19T13:08:36;95549.44;;;23.34;85.60
29239;BME280;16267;48.194;11.546;2022-08-19T13:11:15;95552.94;;;23.41;85.43
29239;BME280;16267;48.194;11.546;2022-08-19T13:13:48;95538.78;;;23.48;84.44
29239;BME280;16267;48.194;11.546;2022-08-19T13:16:15;95543.00;;;23.54;84.62
29239;BME280;16267;48.194;11.546;2022-08-19T13:18:45;95542.53;;;23.62;84.34